METAR Data
IDs: Format: Raw Decoded Include TAF

Data at: 1444 UTC 22 Apr 2021

KERV 221435Z AUTO 11009KT 10SM OVC015 11/07 A3009 RMK AO2 T01120068
KERV 221415Z AUTO 12006KT 7SM OVC015 11/07 A3009 RMK AO2 T01060065
KERV 221355Z AUTO 12008KT 10SM BKN017 OVC032 11/06 A3009 RMK AO2 T01130061
KERV 221335Z AUTO 12006KT 10SM SCT019 OVC032 11/06 A3009 RMK AO2 T01130061
KERV 221315Z AUTO 10008KT 10SM SCT023 OVC032 11/06 A3008 RMK AO2 T01120060
KERV 221255Z AUTO 09006KT 10SM OVC032 11/06 A3008 RMK AO2 T01130060
KERV 221235Z AUTO 08006KT 10SM SCT026 BKN034 OVC040 11/05 A3007 RMK AO2 T01080047
KERV 221215Z AUTO 08006KT 10SM SCT020 BKN035 OVC041 11/04 A3007 RMK AO2 T01080041
KERV 221155Z AUTO 08007KT 10SM BKN020 OVC028 11/05 A3008 RMK AO2 T01130051 10113 20092
KERV 221135Z AUTO 09005KT 10SM BKN020 OVC028 11/05 A3007 RMK AO2 T01130045
KERV 221115Z AUTO 09006KT 10SM OVC020 11/04 A3007 RMK AO2 T01130041
KERV 221055Z AUTO 08004KT 10SM OVC020 11/02 A3007 RMK AO2 T01060022

KT82 221435Z AUTO 11005KT 10SM OVC016 11/02 A3010 RMK AO2 T01050023
KT82 221415Z AUTO 10007KT 10SM BKN016 OVC022 11/02 A3009 RMK AO2 T01050022
KT82 221355Z AUTO 10007KT 10SM SCT014 OVC022 11/02 A3010 RMK AO2 T01060022
KT82 221335Z AUTO 09008KT 10SM SCT014 OVC033 11/03 A3010 RMK AO2 T01060026
KT82 221315Z AUTO 08008KT 10SM SCT015 OVC033 10/02 A3010 RMK AO2 T01030016
KT82 221255Z AUTO 09005KT 10SM SCT016 OVC031 10/02 A3010 RMK AO2 T01020015
KT82 221235Z AUTO 09006KT 10SM BKN016 OVC033 10/02 A3009 RMK AO2 T01020015
KT82 221215Z AUTO 08005KT 10SM OVC016 10/01 A3009 RMK AO2 T01020010
KT82 221155Z AUTO 08004KT 10SM OVC016 10/01 A3009 RMK AO2 T01020005 10102 20066
KT82 221135Z AUTO 09004KT 10SM OVC016 10/00 A3009 RMK AO2 T01010000
KT82 221115Z AUTO 11003KT 10SM OVC016 10/00 A3009 RMK AO2 T01011001
KT82 221055Z AUTO 09003KT 10SM OVC016 10/M01 A3009 RMK AO2 T01001006

KHDO 221358Z AUTO 10010KT 9SM -RA FEW015 OVC029 14/09 A3008 RMK AO2 P0000 T01440089
KHDO 221351Z AUTO 09009G18KT 10SM -RA OVC031 14/09 A3007 RMK AO2 RAB50 SLP175 P0000 T01440089
KHDO 221330Z AUTO 10010KT 10SM SCT015 OVC033 14/09 A3007 RMK AO2 T01440089
KHDO 221251Z AUTO 10010KT 10SM BKN015 OVC037 14/09 A3006 RMK AO2 SLP169 T01440089
KHDO 221151Z AUTO 09009KT 10SM OVC050 14/08 A3004 RMK AO2 SLP163 T01390083 10150 20139 56008
KHDO 221059Z AUTO 10009KT 10SM SCT013 BKN040 OVC047 14/08 A3004 RMK AO2 T01390083
KHDO 221051Z AUTO 10008KT 10SM BKN013 OVC045 14/08 A3004 RMK AO2 SLP164 T01390083

KCVB 221435Z AUTO 09008KT 10SM SCT017 SCT022 OVC033 16/06 A3010 RMK AO2 T01550059
KCVB 221415Z AUTO 08007KT 10SM BKN017 OVC037 15/06 A3010 RMK AO2 T01530060
KCVB 221355Z AUTO 09009G14KT 10SM BKN017 OVC035 15/07 A3010 RMK AO2 T01540071
KCVB 221335Z AUTO 09008G15KT 10SM SCT017 OVC039 16/08 A3010 RMK AO2 T01550082
KCVB 221315Z AUTO 09010KT 10SM OVC041 16/09 A3009 RMK AO2 T01550085
KCVB 221255Z AUTO 09009KT 10SM SCT018 OVC041 16/09 A3008 RMK AO2 T01550086
KCVB 221235Z AUTO 08007KT 10SM BKN018 OVC041 15/09 A3008 RMK AO2 T01530085
KCVB 221215Z AUTO 09009KT 10SM BKN018 OVC041 15/09 A3007 RMK AO2 T01530087
KCVB 221155Z AUTO 08007KT 10SM SCT041 OVC050 15/09 A3007 RMK AO2 T01510087 10160 20146
KCVB 221135Z AUTO 08005KT 10SM BKN041 BKN050 OVC070 15/09 A3007 RMK AO2 T01500085
KCVB 221115Z AUTO 08005KT 10SM SCT024 OVC043 15/09 A3007 RMK AO2 T01490085
KCVB 221055Z AUTO 09005KT 10SM SCT026 OVC041 15/08 A3008 RMK AO2 T01480082

KJCT 221351Z AUTO 07006KT 10SM OVC023 11/02 A3008 RMK AO2 SLP168 T01060017
KJCT 221251Z AUTO 08007KT 10SM SCT021 OVC026 10/01 A3008 RMK AO2 SLP166 T01000006
KJCT 221159Z AUTO 07008KT 10SM BKN025 OVC032 10/00 A3007 RMK AO2 T01000000
KJCT 221151Z AUTO 06008KT 10SM OVC030 10/00 A3007 RMK AO2 SLP162 T01000000 10100 20078 55002
KJCT 221051Z AUTO 07006KT 10SM OVC050 09/M01 A3007 RMK AO2 SLP161 T00941006